KFLP

Marion County Regional Airport

Flippin, Arkansas, USA
METAR KFLP 221426Z AUTO 00000KT 10SM SCT001 05/03 A3027 RMK AO2
Observed Flight Rules
Oct-22 @ 14:26 UTC (27 minutes ago) Visual Flight Rules
Visibility Clouds
10 miles
  • Scattered at 100' AGL
Temperatures Readings
Current 5°C / 41°F
Dewpoint 3°C / 37°F
Humidity 87%
Altimeter 30.27" Hg
Pressure 1025 hPa
Elevation 219
METAR KFLP 221426Z AUTO 00000KT 10SM SCT001 05/03 A3027 RMK AO2
Observed Flight Rules
Oct-22 @ 14:26 UTC
(27 minutes ago)
VFR
Clouds
  • Scattered at 100' AGL
Temperature Dewpoint
5°C / 41°F 3°C / 37°F
Humidity Altimeter Pressure
87% 30.27" Hg 1025 hPa